createdAt,value
2018-09-09T00:01:22.664Z,19.37
2018-09-09T00:03:50.745Z,19.31
2018-09-09T00:06:18.878Z,19.40
2018-09-09T00:08:47.027Z,19.48
2018-09-09T00:11:15.061Z,19.48
2018-09-09T00:13:43.138Z,19.28
2018-09-09T00:16:11.200Z,19.18
2018-09-09T00:18:39.389Z,19.37
2018-09-09T00:21:07.632Z,19.22
2018-09-09T00:23:35.733Z,19.02
2018-09-09T00:26:03.852Z,18.71
2018-09-09T00:28:32.020Z,18.69
2018-09-09T00:31:00.285Z,18.96
2018-09-09T00:33:29.342Z,18.74
2018-09-09T00:35:58.742Z,18.79
2018-09-09T00:38:27.075Z,18.60
2018-09-09T00:40:55.160Z,18.67
2018-09-09T00:43:23.291Z,18.69
2018-09-09T00:45:51.563Z,18.62
2018-09-09T00:48:19.692Z,18.63
2018-09-09T00:50:53.152Z,18.56
2018-09-09T00:53:26.620Z,18.58
2018-09-09T00:55:54.781Z,18.54
2018-09-09T00:58:22.910Z,18.37
2018-09-09T01:00:57.069Z,18.46
2018-09-09T01:03:25.215Z,18.62
2018-09-09T01:05:53.367Z,18.75
2018-09-09T01:08:21.551Z,18.87
2018-09-09T01:10:49.672Z,18.78
2018-09-09T01:13:17.779Z,18.71
2018-09-09T01:15:45.973Z,18.61
2018-09-09T01:18:14.042Z,18.65
2018-09-09T01:20:43.262Z,18.54
2018-09-09T01:23:11.363Z,18.56
2018-09-09T01:25:39.460Z,18.60
2018-09-09T01:28:07.559Z,18.40
2018-09-09T01:30:35.666Z,18.41
2018-09-09T01:33:03.782Z,18.40
2018-09-09T01:35:32.096Z,18.45
2018-09-09T01:38:00.220Z,18.33
2018-09-09T01:40:28.864Z,18.34
2018-09-09T01:42:56.942Z,18.21
2018-09-09T01:45:25.055Z,18.16
2018-09-09T01:47:53.138Z,18.10
2018-09-09T01:50:21.303Z,18.08
2018-09-09T01:52:49.383Z,18.12
2018-09-09T01:55:17.449Z,18.25
2018-09-09T01:57:45.768Z,18.10
2018-09-09T02:00:13.907Z,17.98
2018-09-09T02:02:41.952Z,17.93
2018-09-09T02:05:10.068Z,18.04
2018-09-09T02:07:38.711Z,17.95
2018-09-09T02:10:06.767Z,18.01
2018-09-09T02:12:34.827Z,17.96
2018-09-09T02:15:03.759Z,17.82
2018-09-09T02:17:31.827Z,17.89
2018-09-09T02:19:59.949Z,17.86
2018-09-09T02:22:29.013Z,17.88
2018-09-09T02:24:57.110Z,17.78
2018-09-09T02:27:25.369Z,17.68
2018-09-09T02:29:53.441Z,17.57
2018-09-09T02:32:21.519Z,17.57
2018-09-09T02:34:49.913Z,17.41
2018-09-09T02:37:17.982Z,17.51
2018-09-09T02:39:46.128Z,17.51
2018-09-09T02:42:14.204Z,17.38
2018-09-09T02:44:42.311Z,17.49
2018-09-09T02:47:10.344Z,17.50
2018-09-09T02:49:38.388Z,17.51
2018-09-09T02:52:06.663Z,17.46
2018-09-09T02:54:34.802Z,17.42
2018-09-09T02:57:02.851Z,17.47
2018-09-09T02:59:42.117Z,17.32
2018-09-09T03:02:23.289Z,17.24
2018-09-09T03:04:51.551Z,17.25
2018-09-09T03:07:19.664Z,17.25
2018-09-09T03:09:47.930Z,17.09
2018-09-09T03:12:16.089Z,17.08
2018-09-09T03:14:44.551Z,17.01
2018-09-09T03:17:12.663Z,17.18
2018-09-09T03:19:40.701Z,17.09
2018-09-09T03:22:08.788Z,17.12
2018-09-09T03:24:36.947Z,17.14
2018-09-09T03:27:05.010Z,16.71
2018-09-09T03:29:33.124Z,16.84
2018-09-09T03:32:01.312Z,16.88
2018-09-09T03:34:29.454Z,16.87
2018-09-09T03:36:57.548Z,16.83
2018-09-09T03:39:25.619Z,16.87
2018-09-09T03:41:54.552Z,16.77
2018-09-09T03:44:22.639Z,16.88
2018-09-09T03:46:50.719Z,16.80
2018-09-09T03:49:18.822Z,16.74
2018-09-09T03:51:46.905Z,16.59
2018-09-09T03:54:15.039Z,16.63
2018-09-09T03:56:43.246Z,16.75
2018-09-09T03:59:11.221Z,16.59
2018-09-09T04:01:39.406Z,16.61
2018-09-09T04:04:07.505Z,16.55
2018-09-09T04:06:35.650Z,16.46
2018-09-09T04:09:04.781Z,16.30
2018-09-09T04:11:32.920Z,16.28
2018-09-09T04:14:01.045Z,16.30
2018-09-09T04:16:29.563Z,16.27
2018-09-09T04:18:58.796Z,16.30
2018-09-09T04:21:27.020Z,16.29
2018-09-09T04:23:55.146Z,16.12
2018-09-09T04:26:23.319Z,16.29
2018-09-09T04:28:51.419Z,16.24
2018-09-09T04:31:19.594Z,16.22
2018-09-09T04:33:47.723Z,16.31
2018-09-09T04:36:15.885Z,16.34
2018-09-09T04:38:44.051Z,16.38
2018-09-09T04:41:12.942Z,16.19
2018-09-09T04:43:41.635Z,16.19
2018-09-09T04:46:10.598Z,16.14
2018-09-09T04:48:38.859Z,16.09
2018-09-09T04:51:06.657Z,16.17
2018-09-09T04:53:34.829Z,16.19
2018-09-09T04:56:03.003Z,16.04
2018-09-09T04:58:31.273Z,15.98
2018-09-09T05:01:00.018Z,16.04
2018-09-09T05:03:28.142Z,16.08
2018-09-09T05:05:56.309Z,16.06
2018-09-09T05:08:24.492Z,15.99
2018-09-09T05:10:52.723Z,15.98
2018-09-09T05:13:20.881Z,16.17
2018-09-09T05:15:49.154Z,16.20
2018-09-09T05:18:17.421Z,16.11
2018-09-09T05:20:45.590Z,16.03
2018-09-09T05:23:13.931Z,16.10
2018-09-09T05:25:42.134Z,16.22
2018-09-09T05:28:10.254Z,16.27
2018-09-09T05:30:38.386Z,16.27
2018-09-09T05:33:06.601Z,16.36
2018-09-09T05:35:34.714Z,16.47
2018-09-09T05:38:03.875Z,16.43
2018-09-09T05:40:32.043Z,16.40
2018-09-09T05:43:00.190Z,16.43
2018-09-09T05:45:28.275Z,16.39
2018-09-09T05:47:56.435Z,16.41
2018-09-09T05:50:24.521Z,16.39
2018-09-09T05:52:52.619Z,16.59
2018-09-09T05:55:20.798Z,16.65
2018-09-09T05:57:48.978Z,16.32
2018-09-09T06:00:16.995Z,16.53
2018-09-09T06:02:45.111Z,16.61
2018-09-09T06:05:13.202Z,16.57
2018-09-09T06:07:41.334Z,16.51
2018-09-09T06:10:09.443Z,16.42
2018-09-09T06:12:37.649Z,16.72
2018-09-09T06:15:06.348Z,16.81
2018-09-09T06:17:34.450Z,16.88
2018-09-09T06:20:02.633Z,16.83
2018-09-09T06:22:30.741Z,16.87
2018-09-09T06:24:58.833Z,16.83
2018-09-09T06:27:26.951Z,16.67
2018-09-09T06:29:54.997Z,16.75
2018-09-09T06:32:23.142Z,16.81
2018-09-09T06:34:51.245Z,16.85
2018-09-09T06:37:19.488Z,16.93
2018-09-09T06:39:47.579Z,17.02
2018-09-09T06:42:15.792Z,16.55
2018-09-09T06:44:44.066Z,16.81
2018-09-09T06:47:12.678Z,16.83
2018-09-09T06:49:41.023Z,16.79
2018-09-09T06:52:09.519Z,16.52
2018-09-09T06:54:37.756Z,16.75
2018-09-09T06:57:06.005Z,16.67
2018-09-09T06:59:34.071Z,16.63
2018-09-09T07:02:02.167Z,16.55
2018-09-09T07:04:30.371Z,16.63
2018-09-09T07:06:58.454Z,16.67
2018-09-09T07:09:26.546Z,16.76
2018-09-09T07:11:54.797Z,16.70
2018-09-09T07:14:22.811Z,16.72
2018-09-09T07:16:50.930Z,16.71
2018-09-09T07:19:19.085Z,16.79
2018-09-09T07:21:47.180Z,17.23
2018-09-09T07:24:15.268Z,17.24
2018-09-09T07:26:43.402Z,17.41
2018-09-09T07:29:12.001Z,17.47
2018-09-09T07:31:40.177Z,17.33
2018-09-09T07:34:08.560Z,17.57
2018-09-09T07:36:36.689Z,17.43
2018-09-09T07:39:06.019Z,17.63
2018-09-09T07:41:34.150Z,17.74
2018-09-09T07:44:02.234Z,17.90
2018-09-09T07:46:30.692Z,18.05
2018-09-09T07:48:58.714Z,18.50
2018-09-09T07:51:26.861Z,18.36
2018-09-09T07:53:55.145Z,18.28
2018-09-09T07:56:23.279Z,18.47
2018-09-09T07:58:51.369Z,18.46
2018-09-09T08:01:19.462Z,18.49
2018-09-09T08:03:47.586Z,18.77
2018-09-09T08:06:15.837Z,18.78
2018-09-09T08:08:43.976Z,18.71
2018-09-09T08:11:12.165Z,18.93
2018-09-09T08:13:40.529Z,19.07
2018-09-09T08:16:09.100Z,18.97
2018-09-09T08:18:37.371Z,18.98
2018-09-09T08:21:05.564Z,19.17
2018-09-09T08:23:33.741Z,19.00
2018-09-09T08:26:02.075Z,18.99
2018-09-09T08:28:30.807Z,19.17
2018-09-09T08:30:58.907Z,19.34
2018-09-09T08:33:26.977Z,19.50
2018-09-09T08:35:55.056Z,19.88
2018-09-09T08:38:23.269Z,19.92
2018-09-09T08:40:51.342Z,19.81
2018-09-09T08:43:19.648Z,19.62
2018-09-09T08:45:47.778Z,19.88
2018-09-09T08:48:15.936Z,20.13
2018-09-09T08:50:44.022Z,20.15
2018-09-09T08:53:12.107Z,20.39
2018-09-09T08:55:40.194Z,20.47
2018-09-09T08:58:08.347Z,20.62
2018-09-09T09:00:36.593Z,20.69
2018-09-09T09:03:04.840Z,20.48
2018-09-09T09:05:32.927Z,20.18
2018-09-09T09:08:01.053Z,20.33
2018-09-09T09:10:34.494Z,20.34
2018-09-09T09:13:02.658Z,20.23
2018-09-09T09:15:30.943Z,20.64
2018-09-09T09:17:59.151Z,20.87
2018-09-09T09:20:27.300Z,20.70
2018-09-09T09:22:57.781Z,20.72
2018-09-09T09:25:28.358Z,20.66
2018-09-09T09:27:57.699Z,21.20
2018-09-09T09:30:32.426Z,20.94
2018-09-09T09:33:10.632Z,21.18
2018-09-09T09:35:44.274Z,21.36
2018-09-09T09:38:12.516Z,21.69
2018-09-09T09:40:40.635Z,21.82
2018-09-09T09:43:08.793Z,22.47
2018-09-09T09:45:36.931Z,21.86
2018-09-09T09:48:05.050Z,21.92
2018-09-09T09:50:33.256Z,22.39
2018-09-09T09:53:01.428Z,22.23
2018-09-09T09:55:29.547Z,22.44
2018-09-09T09:57:58.056Z,22.62
2018-09-09T10:00:32.641Z,22.54
2018-09-09T10:03:01.587Z,22.77
2018-09-09T10:05:29.695Z,22.81
2018-09-09T10:08:00.774Z,23.15
2018-09-09T10:10:28.871Z,23.38
2018-09-09T10:12:57.101Z,23.19
2018-09-09T10:15:26.575Z,23.49
2018-09-09T10:17:54.618Z,23.72
2018-09-09T10:20:22.824Z,24.07
2018-09-09T10:22:50.962Z,23.92
2018-09-09T10:25:19.008Z,24.16
2018-09-09T10:27:47.088Z,24.23
2018-09-09T10:30:15.285Z,24.36
2018-09-09T10:32:43.474Z,24.54
2018-09-09T10:35:11.590Z,24.75
2018-09-09T10:37:39.701Z,24.88
2018-09-09T10:40:07.897Z,24.81
2018-09-09T10:42:35.968Z,24.83
2018-09-09T10:45:04.175Z,25.00
2018-09-09T10:47:32.345Z,25.30
2018-09-09T10:50:01.463Z,25.09
2018-09-09T10:52:30.175Z,25.67
2018-09-09T10:54:58.403Z,25.53
2018-09-09T10:57:27.333Z,26.11
2018-09-09T10:59:55.539Z,26.08
2018-09-09T11:02:24.819Z,26.01
2018-09-09T11:04:52.983Z,25.93
2018-09-09T11:07:21.565Z,26.09
2018-09-09T11:09:49.744Z,26.26
2018-09-09T11:12:17.881Z,26.64
2018-09-09T11:14:46.026Z,26.81
2018-09-09T11:17:14.155Z,25.91
2018-09-09T11:19:42.278Z,26.28
2018-09-09T11:22:10.410Z,26.96
2018-09-09T11:24:38.637Z,27.45
2018-09-09T11:27:06.646Z,27.18
2018-09-09T11:29:34.754Z,27.41
2018-09-09T11:32:02.890Z,26.85
2018-09-09T11:34:31.528Z,27.57
2018-09-09T11:36:59.751Z,27.29
2018-09-09T11:39:28.184Z,27.80
2018-09-09T11:41:56.390Z,26.97
2018-09-09T11:44:24.515Z,27.11
2018-09-09T11:46:52.665Z,27.91
2018-09-09T11:49:20.805Z,28.27
2018-09-09T11:51:48.943Z,28.64
2018-09-09T11:54:18.497Z,31.36
2018-09-09T11:56:46.627Z,30.89
2018-09-09T11:59:14.761Z,29.46
2018-09-09T12:01:43.003Z,28.99
2018-09-09T12:04:11.111Z,29.08
2018-09-09T12:06:39.264Z,30.06
2018-09-09T12:09:09.288Z,30.03
2018-09-09T12:11:37.496Z,30.38
2018-09-09T12:14:05.800Z,29.89
2018-09-09T12:16:33.942Z,30.40
2018-09-09T12:19:02.501Z,30.31
2018-09-09T12:21:30.656Z,29.41
2018-09-09T12:23:58.782Z,31.28
2018-09-09T12:26:26.934Z,32.48
2018-09-09T12:28:55.110Z,32.87
2018-09-09T12:31:23.502Z,31.04
2018-09-09T12:33:51.579Z,30.96
2018-09-09T12:36:19.674Z,30.87
2018-09-09T12:38:47.800Z,34.23
2018-09-09T12:41:15.967Z,34.08
2018-09-09T12:43:49.290Z,34.64
2018-09-09T12:46:22.748Z,34.44
2018-09-09T12:48:56.094Z,31.56
2018-09-09T12:51:24.236Z,31.30
2018-09-09T12:53:52.323Z,30.04
2018-09-09T12:56:20.458Z,30.98
2018-09-09T12:58:48.538Z,30.29
2018-09-09T13:01:16.670Z,30.30
2018-09-09T13:03:44.798Z,29.43
2018-09-09T13:06:13.030Z,29.84
2018-09-09T13:08:41.145Z,30.63
2018-09-09T13:11:09.365Z,32.16
2018-09-09T13:13:37.739Z,33.10
2018-09-09T13:16:06.492Z,32.46
2018-09-09T13:18:34.596Z,32.91
2018-09-09T13:21:02.762Z,32.29
2018-09-09T13:23:30.949Z,32.34
2018-09-09T13:25:59.014Z,36.18
2018-09-09T13:28:27.103Z,39.14
2018-09-09T13:30:55.352Z,42.72
2018-09-09T13:33:23.522Z,41.89
2018-09-09T13:35:51.760Z,42.46
2018-09-09T13:38:20.117Z,36.13
2018-09-09T13:40:48.312Z,34.20
2018-09-09T13:43:16.678Z,40.65
2018-09-09T13:45:44.955Z,41.31
2018-09-09T13:48:13.140Z,42.51
2018-09-09T13:50:41.938Z,40.39
2018-09-09T13:53:10.100Z,40.71
2018-09-09T13:58:14.235Z,42.34
2018-09-09T14:00:43.602Z,46.19
2018-09-09T14:03:11.771Z,44.86
2018-09-09T14:05:41.562Z,46.60
2018-09-09T14:08:09.829Z,45.48
2018-09-09T14:10:38.057Z,46.16
2018-09-09T14:13:06.416Z,44.50
2018-09-09T14:15:34.974Z,44.29
2018-09-09T14:18:03.265Z,43.38
2018-09-09T14:20:32.247Z,40.59
2018-09-09T14:23:00.478Z,35.99
2018-09-09T14:25:28.686Z,34.32
2018-09-09T14:27:56.872Z,33.35
2018-09-09T14:30:25.792Z,34.67
2018-09-09T14:32:54.095Z,36.02
2018-09-09T14:35:22.255Z,41.30
2018-09-09T14:37:50.580Z,42.97
2018-09-09T14:40:18.803Z,42.76
2018-09-09T14:42:47.011Z,36.72
2018-09-09T14:45:15.462Z,39.25
2018-09-09T14:47:44.113Z,39.54
2018-09-09T14:50:12.299Z,39.11
2018-09-09T14:52:40.777Z,37.35
2018-09-09T14:55:09.021Z,37.41
2018-09-09T14:57:37.223Z,37.95
2018-09-09T15:00:05.331Z,42.71
2018-09-09T15:02:33.539Z,43.40
2018-09-09T15:09:59.500Z,41.50
2018-09-09T15:12:27.856Z,41.78
2018-09-09T15:14:55.970Z,44.36
2018-09-09T15:17:24.263Z,45.47
2018-09-09T15:19:52.500Z,45.33
2018-09-09T15:22:20.823Z,40.32
2018-09-09T15:24:49.926Z,40.87
2018-09-09T15:27:18.050Z,42.49
2018-09-09T15:29:46.458Z,40.88
2018-09-09T15:32:14.674Z,40.07
2018-09-09T15:34:42.783Z,36.88
2018-09-09T15:37:10.925Z,35.44
2018-09-09T15:39:39.097Z,35.37
2018-09-09T15:42:07.237Z,34.72
2018-09-09T15:44:36.851Z,39.08
2018-09-09T15:47:05.236Z,40.88
2018-09-09T15:49:33.454Z,42.93
2018-09-09T15:52:01.706Z,40.64
2018-09-09T15:54:30.111Z,38.03
2018-09-09T15:56:58.295Z,36.28
2018-09-09T15:59:26.439Z,36.97
2018-09-09T16:01:54.704Z,38.77
2018-09-09T16:04:22.861Z,34.93
2018-09-09T16:06:51.913Z,35.81
2018-09-09T16:09:20.227Z,34.68
2018-09-09T16:11:48.426Z,33.47
2018-09-09T16:14:16.530Z,35.14
2018-09-09T16:16:44.655Z,35.84
2018-09-09T16:19:12.762Z,34.98
2018-09-09T16:21:41.302Z,34.76
2018-09-09T16:24:09.403Z,33.67
2018-09-09T16:26:37.575Z,33.15
2018-09-09T16:29:05.713Z,32.07
2018-09-09T16:31:33.819Z,31.47
2018-09-09T16:34:02.983Z,31.49
2018-09-09T16:36:31.102Z,31.45
2018-09-09T16:38:59.331Z,31.16
2018-09-09T16:41:27.984Z,31.23
2018-09-09T16:43:56.250Z,30.47
2018-09-09T16:46:24.377Z,30.56
2018-09-09T16:48:52.485Z,29.76
2018-09-09T16:51:20.600Z,30.03
2018-09-09T16:53:48.732Z,30.17
2018-09-09T16:56:16.863Z,30.00
2018-09-09T16:58:44.974Z,29.79
2018-09-09T17:01:13.275Z,29.78
2018-09-09T17:03:41.426Z,29.75
2018-09-09T17:06:09.576Z,29.60
2018-09-09T17:08:37.771Z,29.36
2018-09-09T17:11:06.174Z,29.37
2018-09-09T17:13:34.322Z,29.17
2018-09-09T17:16:03.269Z,28.91
2018-09-09T17:18:31.426Z,28.99
2018-09-09T17:21:00.294Z,28.74
2018-09-09T17:23:29.001Z,28.74
2018-09-09T17:25:58.017Z,28.47
2018-09-09T17:28:26.148Z,28.39
2018-09-09T17:30:55.162Z,28.25
2018-09-09T17:33:23.361Z,28.07
2018-09-09T17:35:52.066Z,28.07
2018-09-09T17:38:20.274Z,28.04
2018-09-09T17:40:48.497Z,27.84
2018-09-09T17:43:16.610Z,27.66
2018-09-09T17:45:44.882Z,27.43
2018-09-09T17:48:13.096Z,27.33
2018-09-09T17:50:41.433Z,27.18
2018-09-09T17:53:09.570Z,27.00
2018-09-09T17:55:37.687Z,26.81
2018-09-09T17:58:05.777Z,26.64
2018-09-09T18:00:33.982Z,26.57
2018-09-09T18:03:02.901Z,26.53
2018-09-09T18:05:31.199Z,26.59
2018-09-09T18:07:59.326Z,26.36
2018-09-09T18:10:27.502Z,26.40
2018-09-09T18:12:55.622Z,26.56
2018-09-09T18:15:23.831Z,26.36
2018-09-09T18:17:54.968Z,25.98
2018-09-09T18:20:23.069Z,25.99
2018-09-09T18:22:51.355Z,25.93
2018-09-09T18:25:19.520Z,25.60
2018-09-09T18:27:47.798Z,25.64
2018-09-09T18:30:15.937Z,25.65
2018-09-09T18:32:44.021Z,25.50
2018-09-09T18:35:12.206Z,25.42
2018-09-09T18:37:40.283Z,25.38
2018-09-09T18:40:08.608Z,25.18
2018-09-09T18:42:36.695Z,25.14
2018-09-09T18:45:06.213Z,25.03
2018-09-09T18:47:34.245Z,24.76
2018-09-09T18:50:02.627Z,24.98
2018-09-09T18:52:30.745Z,24.93
2018-09-09T18:54:58.841Z,24.70
2018-09-09T18:57:27.062Z,24.50
2018-09-09T18:59:57.886Z,24.30
2018-09-09T19:02:26.027Z,24.64
2018-09-09T19:04:54.231Z,24.51
2018-09-09T19:07:22.313Z,24.40
2018-09-09T19:09:50.473Z,24.47
2018-09-09T19:12:18.616Z,23.87
2018-09-09T19:14:46.975Z,23.99
2018-09-09T19:17:15.168Z,24.00
2018-09-09T19:19:43.410Z,24.14
2018-09-09T19:22:11.550Z,23.86
2018-09-09T19:24:39.637Z,23.92
2018-09-09T19:27:07.758Z,23.96
2018-09-09T19:29:36.129Z,23.53
2018-09-09T19:32:04.396Z,23.72
2018-09-09T19:34:32.631Z,23.70
2018-09-09T19:37:00.686Z,23.47
2018-09-09T19:39:28.783Z,23.67
2018-09-09T19:41:56.901Z,23.64
2018-09-09T19:44:25.366Z,23.42
2018-09-09T19:46:53.446Z,23.39
2018-09-09T19:49:21.683Z,23.33
2018-09-09T19:51:49.939Z,23.05
2018-09-09T19:54:18.044Z,23.17
2018-09-09T19:56:46.149Z,23.01
2018-09-09T19:59:14.251Z,23.16
2018-09-09T20:01:42.351Z,23.07
2018-09-09T20:04:10.626Z,23.06
2018-09-09T20:06:38.986Z,22.95
2018-09-09T20:09:07.838Z,22.96
2018-09-09T20:11:36.051Z,22.67
2018-09-09T20:14:04.254Z,22.67
2018-09-09T20:16:32.359Z,22.77
2018-09-09T20:19:00.470Z,22.79
2018-09-09T20:21:28.680Z,22.44
2018-09-09T20:23:56.774Z,22.45
2018-09-09T20:26:24.989Z,22.52
2018-09-09T20:28:53.140Z,22.43
2018-09-09T20:31:21.260Z,22.50
2018-09-09T20:33:49.375Z,22.54
2018-09-09T20:36:17.473Z,22.40
2018-09-09T20:41:12.911Z,21.98
2018-09-09T20:43:41.019Z,22.30
2018-09-09T20:46:09.214Z,22.25
2018-09-09T20:48:37.673Z,22.16
2018-09-09T20:51:05.807Z,22.16
2018-09-09T20:53:34.302Z,21.90
2018-09-09T20:56:02.440Z,21.99
2018-09-09T20:58:30.575Z,21.93
2018-09-09T21:00:58.855Z,21.94
2018-09-09T21:03:26.969Z,22.07
2018-09-09T21:05:55.147Z,21.90
2018-09-09T21:08:23.281Z,21.74
2018-09-09T21:10:51.600Z,21.93
2018-09-09T21:13:20.265Z,21.81
2018-09-09T21:15:48.369Z,21.59
2018-09-09T21:18:16.645Z,21.53
2018-09-09T21:20:44.981Z,21.66
2018-09-09T21:23:13.176Z,21.42
2018-09-09T21:25:41.371Z,21.35
2018-09-09T21:28:09.507Z,21.23
2018-09-09T21:30:37.721Z,21.35
2018-09-09T21:33:06.029Z,21.26
2018-09-09T21:35:34.577Z,21.28
2018-09-09T21:38:02.831Z,21.28
2018-09-09T21:40:30.926Z,21.17
2018-09-09T21:42:59.124Z,21.12
2018-09-09T21:45:27.222Z,21.15
2018-09-09T21:47:55.362Z,21.16
2018-09-09T21:50:23.542Z,20.79
2018-09-09T21:52:51.653Z,21.00
2018-09-09T21:55:19.792Z,20.93
2018-09-09T21:57:47.962Z,20.83
2018-09-09T22:00:16.071Z,20.81
2018-09-09T22:02:44.212Z,20.90
2018-09-09T22:05:12.896Z,21.00
2018-09-09T22:07:41.115Z,21.07
2018-09-09T22:10:09.210Z,20.96
2018-09-09T22:12:37.467Z,20.90
2018-09-09T22:15:06.301Z,20.84
2018-09-09T22:17:34.777Z,20.69
2018-09-09T22:20:03.047Z,20.62
2018-09-09T22:22:31.702Z,20.66
2018-09-09T22:24:59.799Z,20.55
2018-09-09T22:27:28.240Z,20.31
2018-09-09T22:29:57.516Z,20.47
2018-09-09T22:32:26.425Z,20.52
2018-09-09T22:34:56.070Z,20.54
2018-09-09T22:37:24.137Z,20.35
2018-09-09T22:39:52.449Z,20.41
2018-09-09T22:42:20.658Z,20.24
2018-09-09T22:44:48.744Z,20.30
2018-09-09T22:47:17.690Z,19.98
2018-09-09T22:49:46.551Z,20.00
2018-09-09T22:52:15.011Z,19.94
2018-09-09T22:54:43.210Z,19.95
2018-09-09T22:57:11.843Z,19.85
2018-09-09T22:59:39.953Z,19.86
2018-09-09T23:02:08.578Z,19.75
2018-09-09T23:04:36.705Z,19.59
2018-09-09T23:07:04.791Z,19.69
2018-09-09T23:09:33.181Z,19.69
2018-09-09T23:12:01.811Z,19.69
2018-09-09T23:14:30.643Z,19.79
2018-09-09T23:16:58.807Z,19.66
2018-09-09T23:19:27.110Z,19.56
2018-09-09T23:21:55.297Z,19.53
2018-09-09T23:24:25.381Z,19.62
2018-09-09T23:26:53.515Z,19.60
2018-09-09T23:29:22.467Z,19.47
2018-09-09T23:31:50.624Z,19.29
2018-09-09T23:34:20.096Z,19.29
2018-09-09T23:36:48.180Z,19.24
2018-09-09T23:39:16.298Z,19.26
2018-09-09T23:41:44.402Z,19.10
2018-09-09T23:44:13.629Z,19.07
2018-09-09T23:46:41.708Z,19.24
2018-09-09T23:49:09.951Z,19.37
2018-09-09T23:51:38.117Z,19.27
2018-09-09T23:54:07.418Z,19.09
2018-09-09T23:56:39.703Z,19.14
2018-09-09T23:59:07.899Z,19.02
